KSRQRJAA

Guest
Details From KSRQ - Sarasota Bradenton Intl
To RJAA - Narita Intl
Flight Number -
Tags Decoded
Created
Modified
Stats Distance 6,463 nm / 11,970 km
Max Altitude 0 ft / 0 m
Waypoints 7
Social Downloads 1
Likes 0
Share VATSIM

Download

Looking for another format? Having issues loading an existing format? Contact us
Advertisement - Login to hide

Notes

Decoded

Route

KSRQ KIAH KDFW KDEN CYVR PADU RJAA

ID Type Via Altitude Latitude Longitude Leg Dist Tot Dist Heading (true) Name
O KSRQ APT - 0 ft / 0 m 27.38998˚ -82.55765˚ - 0 nm - -
KIAH APT - 0 ft / 0 m 30.00719˚ -95.35879˚ 692 nm 692 nm 286° / 280° -
KDFW APT - 0 ft / 0 m 32.91257˚ -97.02148˚ 194 nm 886 nm 334° / 334° -
KDEN APT - 0 ft / 0 m 39.87756˚ -104.66223˚ 557 nm 1443 nm 321° / 316° -
CYVR APT - 0 ft / 0 m 49.20509˚ -123.20131˚ 967 nm 2410 nm 312° / 298° -
PADU APT - 0 ft / 0 m 53.90289˚ -166.55140˚ 1616 nm 4027 nm 297° / 262° UNALASKA
O RJAA APT - 0 ft / 0 m 35.80271˚ 140.37991˚ 2435 nm 6463 nm 266° / 226° -

Altitude Profile

Advertisement - Login to hide

Weather


0- 5 10 15 20 25 30 35+ Temperature / ° C

Clouds and Precipitation
Forecast for 2017-12-14 00:00 UTC. Updated an hour ago

Ground ~20,000 ft ~40,000 ft Winds

KSRQ

Details ICAO KSRQ (SRQ)
Name Sarasota Bradenton Intl
Region United States
Timezone America/New_York (UTC-5.0)
Stats Elevation 31 ft / 9 m (AMSL)
Location 27.395443° -82.554035°
Runways 2
Magnetic Variation 5.459° W

METAR

KSRQ 132353Z AUTO 31003KT 10SM CLR 11/08 A3009 RMK AO2 SLP187 T01110083 10172 20111 53012

Decode

TAF

TAF KSRQ 132326Z 1400/1424 31007KT P6SM FEW250 FM140300 23004KT P6SM FEW250 FM141300 18006KT P6SM BKN050 FM141600 22010KT P6SM BKN060

Decode

Departure Runways

ID Width Length Bearing (true) Bearing (mag) Surface Threshold Offset Overrun Length
04 150 ft / 46 m 5,019 ft / 1,530 m 37.96° 43.42° Asphalt 0 ft / 0 m 0 ft / 0 m
14 150 ft / 46 m 9,510 ft / 2,899 m 134.53° 139.99° Asphalt 1,350 ft / 411 m 0 ft / 0 m
22 150 ft / 46 m 5,019 ft / 1,530 m 217.96° 223.42° Asphalt 0 ft / 0 m 0 ft / 0 m
32 150 ft / 46 m 9,510 ft / 2,899 m 314.54° 320.00° Asphalt 1,147 ft / 350 m 0 ft / 0 m

RJAA

Details ICAO RJAA (NRT)
Name NARITA INTL
Region Japan
Timezone Asia/Tokyo (UTC+9.0)
Stats Elevation 141 ft / 43 m (AMSL)
Location 35.776552° 140.382770°
Runways 2
Magnetic Variation 7.405° W

METAR

RJAA 140030Z 30015KT 9999 FEW030 05/M07 Q1020 NOSIG RMK 1CU030 A3014

Decode

TAF

TAF RJAA 132306Z 1400/1506 33012KT 9999 FEW030= TAF RJBB 132305Z 1400/1506 34015KT 9999 FEW020 SCT050 BECMG 1415/1418 04008KT

Decode

Destination Runways

ID Width Length Bearing (true) Bearing (mag) Surface Threshold Offset Overrun Length
16L 196 ft / 60 m 7,162 ft / 2,183 m 149.61° 157.02° Asphalt 190 ft / 58 m 0 ft / 0 m
16R 196 ft / 60 m 13,142 ft / 4,006 m 149.61° 157.02° Asphalt 0 ft / 0 m 410 ft / 125 m
34L 196 ft / 60 m 13,142 ft / 4,006 m 329.62° 337.03° Asphalt 0 ft / 0 m 415 ft / 126 m
34R 196 ft / 60 m 7,162 ft / 2,183 m 329.62° 337.03° Asphalt 190 ft / 58 m 0 ft / 0 m

Approach Navaids

Runway Type Ident Frequency Range Bearing (true) Bearing (mag) Slope Elevation
16L Localiser ITM 110.70 MHz 18 nm / 33 km 149.62° 157.02° - 141 ft / 43 m (AMSL)
16L Glidescope ITM 110.70 MHz 10 nm / 19 km 149.62° 157.02° 3.00° 141 ft / 43 m (AMSL)
16L DME ITM 110.70 MHz 18 nm / 33 km - - - 145 ft / 44 m (AMSL)
16R Localiser IKF 111.50 MHz 18 nm / 33 km 149.63° 157.03° - 141 ft / 43 m (AMSL)
16R Glidescope IKF 111.50 MHz 10 nm / 19 km 149.62° 157.02° 3.00° 141 ft / 43 m (AMSL)
16R DME IKF 111.50 MHz 18 nm / 33 km - - - 145 ft / 44 m (AMSL)
34L Localiser IYQ 111.90 MHz 18 nm / 33 km 329.61° 337.01° - 141 ft / 43 m (AMSL)
34L Glidescope IYQ 111.90 MHz 10 nm / 19 km 329.62° 337.02° 3.00° 141 ft / 43 m (AMSL)
34L DME IYQ 111.90 MHz 18 nm / 33 km - - - 153 ft / 47 m (AMSL)
34R Localiser ITJ 110.90 MHz 18 nm / 33 km 329.62° 337.02° - 141 ft / 43 m (AMSL)
34R Glidescope ITJ 110.90 MHz 10 nm / 19 km 329.62° 337.02° 3.00° 141 ft / 43 m (AMSL)
34R DME ITJ 110.90 MHz 18 nm / 33 km - - - 148 ft / 45 m (AMSL)